John Quigg — WDB9828 — position and weather

sailwx.info

Track history (hours):
 
Tides and Currents Weather Stations Pressure Air Temp Water Temp Dewpoint Dewpoint Depression Visibility Wind Speed Wind Dir Waves Ship Positions

John Quigg

Owner: Harley Marine Services, Inc, Seattle, WA. More information available from US FCC via Universal Licensing System and Coast Guard Vessel Documentation Center.

Last reported at 2016-Feb-14 18:33 UTC. Time now 2016-Feb-14 18:55 UTC.
Position N 33°44' W 118°15'.

Length 27 m.

MMSI: 365934954.

Date/timePositionNaut miles runAvg speedWind from/ knotsBaromVisibWave heightAir tempDewpointWater temp
2016-Feb-14 18:33N 33°44' W 118°15'1 1.3
2016-Feb-14 17:33N 33°43' W 118°15'1 1.2
2016-Feb-14 16:33N 33°44' W 118°16'0 0.0
2016-Feb-14 15:33N 33°44' W 118°16'0 0.0
2016-Feb-14 14:30N 33°44' W 118°16'0 0.0
2016-Feb-14 13:33N 33°44' W 118°16'0 0.0
2016-Feb-14 12:31N 33°44' W 118°16'0 0.0
2016-Feb-13 21:33N 33°44' W 118°16'3 2.8
2016-Feb-13 20:33N 33°46' W 118°14'4 3.2
2016-Feb-13 19:27N 33°43' W 118°11'1 0.9
2016-Feb-13 18:32N 33°44' W 118°12'1 0.5
2016-Feb-13 16:13N 33°45' W 118°12'0 0.1
2016-Feb-13 15:15N 33°45' W 118°12'3 4.1
2016-Feb-13 14:33N 33°44' W 118°16'0 0.1
2016-Feb-13 13:33N 33°44' W 118°16'0 0.0
2016-Feb-13 12:33N 33°44' W 118°16'0 0.0
2016-Feb-13 11:33N 33°44' W 118°16'0 0.0
2016-Feb-12 23:33N 33°44' W 118°16'1 0.5
2016-Feb-12 22:33N 33°43' W 118°16'1 0.1
2016-Feb-12 18:33N 33°44' W 118°16'0 0.0
2016-Feb-11 19:27N 33°44' W 118°16'0 0.0
2016-Feb-11 18:32N 33°44' W 118°16'32 5.2
2016-Feb-11 12:24N 33°19' W 117°52'1010.6
2016-Feb-11 11:29N 33°11' W 117°45'1010.3
2016-Feb-11 10:31N 33°03' W 117°38'1010.4
2016-Feb-11 09:33N 32°55' W 117°32'1010.2
2016-Feb-11 08:33N 32°46' W 117°24'17 5.5
2016-Feb-11 05:23N 32°38' W 117°07'  
Track history (hours):
 
Tides and Currents Weather Stations Pressure Air Temp Water Temp Dewpoint Dewpoint Depression Visibility Wind Speed Wind Dir Waves Ship Positions

John Quigg

Owner: Harley Marine Services, Inc, Seattle, WA. More information available from US FCC via Universal Licensing System and Coast Guard Vessel Documentation Center.

Last reported at 2016-Feb-14 18:33 UTC. Time now 2016-Feb-14 18:55 UTC.
Position N 33°44' W 118°15'.

Length 27 m.

MMSI: 365934954.

Date/timePositionNaut miles runAvg speedWind from/ knotsBaromVisibWave heightAir tempDewpointWater temp
2016-Feb-14 18:33N 33°44' W 118°15'1 1.3
2016-Feb-14 17:33N 33°43' W 118°15'1 1.2
2016-Feb-14 16:33N 33°44' W 118°16'0 0.0
2016-Feb-14 15:33N 33°44' W 118°16'0 0.0
2016-Feb-14 14:30N 33°44' W 118°16'0 0.0
2016-Feb-14 13:33N 33°44' W 118°16'0 0.0
2016-Feb-14 12:31N 33°44' W 118°16'0 0.0
2016-Feb-13 21:33N 33°44' W 118°16'3 2.8
2016-Feb-13 20:33N 33°46' W 118°14'4 3.2
2016-Feb-13 19:27N 33°43' W 118°11'1 0.9
2016-Feb-13 18:32N 33°44' W 118°12'1 0.5
2016-Feb-13 16:13N 33°45' W 118°12'0 0.1
2016-Feb-13 15:15N 33°45' W 118°12'3 4.1
2016-Feb-13 14:33N 33°44' W 118°16'0 0.1
2016-Feb-13 13:33N 33°44' W 118°16'0 0.0
2016-Feb-13 12:33N 33°44' W 118°16'0 0.0
2016-Feb-13 11:33N 33°44' W 118°16'0 0.0
2016-Feb-12 23:33N 33°44' W 118°16'1 0.5
2016-Feb-12 22:33N 33°43' W 118°16'1 0.1
2016-Feb-12 18:33N 33°44' W 118°16'0 0.0
2016-Feb-11 19:27N 33°44' W 118°16'0 0.0
2016-Feb-11 18:32N 33°44' W 118°16'32 5.2
2016-Feb-11 12:24N 33°19' W 117°52'1010.6
2016-Feb-11 11:29N 33°11' W 117°45'1010.3
2016-Feb-11 10:31N 33°03' W 117°38'1010.4
2016-Feb-11 09:33N 32°55' W 117°32'1010.2
2016-Feb-11 08:33N 32°46' W 117°24'17 5.5
2016-Feb-11 05:23N 32°38' W 117°07'  

Dump ship's entire track history